Time;durP1;ratioP1;P1;durP2;ratioP2;P2;SDS_P1;SDS_P2;PMS_P1;PMS_P2;Temp;Humidity;BMP_temperature;BMP_pressure;BME280_temperature;BME280_humidity;BME280_pressure;Samples;Min_cycle;Max_cycle;Signal;HPM_P1;HPM_P2
2023/03/02 00:00:36;;;;;;;2.47;1.00;;;;;;;13.32;55.11;100927.59;4999883;28;20049;-78
2023/03/02 00:03:31;;;;;;;3.33;0.90;;;;;;;13.33;54.88;100921.00;5005409;28;20060;-77
2023/03/02 00:06:25;;;;;;;1.65;0.70;;;;;;;13.34;54.75;100933.53;4987298;28;20292;-78
2023/03/02 00:09:20;;;;;;;1.38;1.08;;;;;;;13.33;55.06;100925.66;4979136;28;20061;-77
2023/03/02 00:12:15;;;;;;;1.20;0.77;;;;;;;13.30;56.05;100921.66;5003199;28;20045;-78
2023/03/02 00:15:10;;;;;;;1.30;0.80;;;;;;;13.29;55.12;100917.34;4987800;28;20045;-79
2023/03/02 00:18:02;;;;;;;1.00;0.82;;;;;;;13.29;54.89;100914.59;4977633;28;20050;-77
2023/03/02 00:20:57;;;;;;;1.20;0.82;;;;;;;13.34;55.18;100919.06;4973898;28;20412;-78
2023/03/02 00:23:51;;;;;;;1.25;0.80;;;;;;;13.31;54.76;100915.06;4978614;28;20526;-79
2023/03/02 00:26:46;;;;;;;1.42;0.98;;;;;;;13.28;55.00;100916.53;4980072;28;20541;-79
2023/03/02 00:29:41;;;;;;;1.42;1.25;;;;;;;13.29;55.12;100920.06;4997595;28;20045;-78
2023/03/02 00:32:35;;;;;;;2.83;1.35;;;;;;;13.32;54.32;100916.66;4990126;28;20045;-78
2023/03/02 00:35:30;;;;;;;2.07;0.90;;;;;;;13.28;54.56;100919.25;5008329;28;20041;-77
2023/03/02 00:38:24;;;;;;;1.63;1.13;;;;;;;13.27;54.91;100909.47;4995609;28;20049;-76
2023/03/02 00:41:19;;;;;;;2.05;1.27;;;;;;;13.28;54.14;100913.00;4990242;28;20057;-77
2023/03/02 00:44:16;;;;;;;4.25;2.10;;;;;;;13.37;52.88;100910.22;4990290;28;21151;-77
2023/03/02 00:47:11;;;;;;;4.70;1.08;;;;;;;13.26;53.25;100898.84;4994191;28;20054;-77
2023/03/02 00:50:05;;;;;;;1.67;1.15;;;;;;;13.27;53.37;100912.19;5005539;28;20520;-77
2023/03/02 00:53:00;;;;;;;3.20;1.30;;;;;;;13.27;54.81;100911.38;5001093;28;20049;-77
2023/03/02 00:56:01;;;;;;;1.17;0.90;;;;;;;13.32;53.72;100919.41;5010792;28;20103;-76
2023/03/02 00:58:56;;;;;;;1.45;0.75;;;;;;;13.31;53.55;100911.56;5010732;28;20052;-76
2023/03/02 01:01:56;;;;;;;2.33;0.70;;;;;;;13.28;53.11;100915.72;5011336;28;20053;-76
2023/03/02 01:04:51;;;;;;;1.40;0.52;;;;;;;13.28;52.71;100902.88;5017300;28;20041;-76
2023/03/02 01:07:46;;;;;;;1.08;0.70;;;;;;;13.24;51.91;100901.13;5016812;28;20041;-76
2023/03/02 01:10:40;;;;;;;2.70;0.70;;;;;;;13.21;52.56;100904.50;5001419;28;20060;-77
2023/03/02 01:13:35;;;;;;;1.20;0.73;;;;;;;13.24;52.18;100904.66;5013412;28;20048;-77
2023/03/02 01:16:31;;;;;;;0.70;0.57;;;;;;;13.28;53.49;100900.13;5036484;23;20521;-77
2023/03/02 01:19:23;;;;;;;0.95;0.55;;;;;;;13.26;52.51;100890.66;5011307;28;20045;-77
2023/03/02 01:22:17;;;;;;;1.25;0.80;;;;;;;13.25;51.58;100886.34;5019321;28;20036;-78
2023/03/02 01:25:13;;;;;;;1.23;0.88;;;;;;;13.25;52.40;100891.81;5020212;28;20457;-77
2023/03/02 01:28:07;;;;;;;1.42;1.33;;;;;;;13.23;51.31;100883.94;5000004;28;20036;-78
2023/03/02 01:31:01;;;;;;;0.73;0.50;;;;;;;13.22;50.88;100881.53;5015125;28;20060;-77
2023/03/02 01:33:56;;;;;;;0.90;0.45;;;;;;;13.26;52.12;100874.28;5014937;28;20530;-77
2023/03/02 01:36:51;;;;;;;1.10;0.52;;;;;;;13.25;51.47;100872.69;5031185;28;21533;-77
2023/03/02 01:39:43;;;;;;;3.13;0.73;;;;;;;13.23;49.95;100869.47;5019353;28;20095;-77
2023/03/02 01:42:41;;;;;;;1.33;0.70;;;;;;;13.24;50.22;100869.16;5007808;28;20045;-77
2023/03/02 01:45:57;;;;;;;0.80;0.60;;;;;;;13.23;49.78;100873.00;5034684;28;20041;-78
2023/03/02 01:49:09;;;;;;;1.88;0.80;;;;;;;13.23;49.86;100867.56;5026395;28;20044;-77
2023/03/02 01:52:09;;;;;;;1.20;0.55;;;;;;;13.21;49.43;100863.53;5022404;28;20044;-77
2023/03/02 01:55:06;;;;;;;3.03;0.70;;;;;;;13.15;49.89;100859.41;5006025;28;20414;-77
2023/03/02 01:58:03;;;;;;;1.25;0.70;;;;;;;13.10;49.42;100859.56;5007686;28;20044;-77
2023/03/02 02:00:59;;;;;;;2.15;1.05;;;;;;;13.02;49.96;100852.19;5011218;28;20057;-77
2023/03/02 02:03:54;;;;;;;3.60;0.70;;;;;;;13.00;50.52;100849.81;5017618;28;20045;-78
2023/03/02 02:06:52;;;;;;;1.50;0.95;;;;;;;13.02;51.03;100852.19;5015368;28;20048;-77
2023/03/02 02:09:48;;;;;;;1.23;0.80;;;;;;;13.03;51.61;100857.34;5021636;28;20044;-78
2023/03/02 02:12:42;;;;;;;1.38;0.88;;;;;;;12.99;51.43;100850.94;5010366;28;20052;-77
2023/03/02 02:15:37;;;;;;;0.82;0.63;;;;;;;12.95;51.77;100852.72;5013098;28;20049;-77
2023/03/02 02:18:29;;;;;;;1.08;0.70;;;;;;;12.99;54.02;100850.13;5030466;28;20116;-78
2023/03/02 02:21:25;;;;;;;1.10;0.90;;;;;;;12.98;53.98;100849.34;5028462;28;20048;-77
2023/03/02 02:24:29;;;;;;;1.77;0.88;;;;;;;13.05;55.25;100849.63;5028086;28;20045;-77
2023/03/02 02:27:28;;;;;;;3.45;0.75;;;;;;;12.96;55.41;100851.59;5024500;28;20049;-77
2023/03/02 02:30:24;;;;;;;2.30;1.00;;;;;;;12.93;56.00;100848.72;5007456;28;20048;-77
2023/03/02 02:33:22;;;;;;;3.65;1.35;;;;;;;12.97;54.60;100846.94;5019541;28;20406;-78
2023/03/02 02:36:17;;;;;;;2.67;1.38;;;;;;;13.01;53.98;100850.59;5015396;28;20053;-77
2023/03/02 02:39:23;;;;;;;5.68;1.33;;;;;;;12.99;54.08;100848.22;5014298;28;20120;-77
2023/03/02 02:42:28;;;;;;;2.65;1.80;;;;;;;12.88;54.59;100846.97;5019294;28;20056;-76
2023/03/02 02:45:28;;;;;;;3.38;1.85;;;;;;;12.88;55.63;100849.69;5005022;28;20402;-76
2023/03/02 02:48:24;;;;;;;6.65;3.88;;;;;;;12.89;55.61;100848.56;5000470;28;20053;-76
2023/03/02 02:51:20;;;;;;;3.80;2.50;;;;;;;12.92;56.21;100842.44;5001303;28;20041;-76
2023/03/02 02:54:18;;;;;;;8.85;6.20;;;;;;;12.78;55.93;100839.94;5020108;28;20044;-77
2023/03/02 02:57:15;;;;;;;9.18;7.00;;;;;;;12.85;55.93;100847.59;5027239;28;20048;-77
2023/03/02 03:00:17;;;;;;;9.20;6.25;;;;;;;12.85;55.70;100848.41;5004681;28;20566;-76
2023/03/02 03:03:28;;;;;;;10.02;7.80;;;;;;;12.85;55.84;100848.41;5005290;28;20037;-76
2023/03/02 03:06:28;;;;;;;8.52;5.80;;;;;;;12.86;56.41;100846.47;5014524;28;20523;-76
2023/03/02 03:09:23;;;;;;;9.50;5.57;;;;;;;12.83;57.24;100838.97;5008313;28;20540;-76
2023/03/02 03:12:22;;;;;;;6.10;4.40;;;;;;;12.81;57.57;100839.28;5033273;28;20164;-77
2023/03/02 03:15:17;;;;;;;6.05;4.93;;;;;;;12.87;57.54;100845.34;5036421;28;20052;-77
2023/03/02 03:18:12;;;;;;;7.17;5.70;;;;;;;12.78;57.51;100839.94;5026887;28;20045;-77
2023/03/02 03:21:04;;;;;;;9.20;6.90;;;;;;;12.73;57.24;100836.59;4994745;28;20283;-77
2023/03/02 03:23:58;;;;;;;13.97;11.37;;;;;;;12.89;55.84;100832.19;5033044;28;20048;-76
2023/03/02 03:26:53;;;;;;;4.70;3.97;;;;;;;13.04;56.70;100836.31;5032927;28;20406;-77
2023/03/02 03:29:47;;;;;;;9.77;6.50;;;;;;;13.07;56.13;100830.97;5009973;28;20398;-76
2023/03/02 03:32:42;;;;;;;10.17;7.93;;;;;;;12.98;56.03;100837.63;5014662;28;20518;-76
2023/03/02 03:35:36;;;;;;;10.55;6.35;;;;;;;12.92;56.16;100841.66;5015746;28;20522;-77
2023/03/02 03:38:31;;;;;;;15.57;8.77;;;;;;;12.97;55.22;100852.38;5015916;28;20103;-77
2023/03/02 03:41:26;;;;;;;14.43;11.20;;;;;;;12.90;53.65;100852.88;5016314;28;20363;-76
2023/03/02 03:44:21;;;;;;;14.18;10.23;;;;;;;12.92;53.91;100844.38;5026405;28;20445;-76
2023/03/02 03:47:16;;;;;;;12.17;8.63;;;;;;;12.91;55.02;100842.78;5020602;28;20564;-76
2023/03/02 03:50:10;;;;;;;5.07;3.95;;;;;;;12.96;56.17;100848.03;5004688;28;20056;-76
2023/03/02 03:53:05;;;;;;;7.03;6.03;;;;;;;12.98;56.37;100846.59;5021050;28;20040;-76
2023/03/02 03:55:59;;;;;;;10.67;8.13;;;;;;;12.97;56.55;100846.94;5004460;28;20132;-76
2023/03/02 03:59:05;;;;;;;5.15;4.00;;;;;;;12.99;56.53;100847.41;5022571;28;20807;-76
2023/03/02 04:02:00;;;;;;;3.40;2.78;;;;;;;13.05;57.72;100843.38;5015650;28;20064;-76
2023/03/02 04:04:54;;;;;;;10.63;7.07;;;;;;;12.96;57.05;100845.31;5023969;28;20045;-77
2023/03/02 04:07:49;;;;;;;13.13;7.43;;;;;;;12.93;57.11;100846.78;5017025;28;20041;-76
2023/03/02 04:10:41;;;;;;;11.35;5.43;;;;;;;12.95;57.37;100843.75;5013192;28;20053;-75
2023/03/02 04:13:35;;;;;;;10.17;7.33;;;;;;;13.00;58.10;100840.81;4998009;28;20529;-75
2023/03/02 04:16:26;;;;;;;17.92;11.55;;;;;;;12.92;57.00;100844.38;5008650;28;20056;-76
2023/03/02 04:19:20;;;;;;;17.67;12.15;;;;;;;12.86;56.45;100847.28;5020371;28;20041;-76
2023/03/02 04:22:15;;;;;;;19.38;12.00;;;;;;;12.86;56.32;100839.09;5001082;28;20037;-75
2023/03/02 04:25:11;;;;;;;14.48;9.52;;;;;;;12.72;56.72;100845.91;5012855;28;20038;-75
2023/03/02 04:28:06;;;;;;;9.43;5.55;;;;;;;12.84;56.54;100851.47;5010429;28;20068;-75
2023/03/02 04:31:01;;;;;;;11.23;9.10;;;;;;;12.84;55.97;100849.56;5017068;28;20056;-75
2023/03/02 04:33:56;;;;;;;10.30;6.70;;;;;;;12.85;56.29;100851.13;5027054;28;20064;-76
2023/03/02 04:36:51;;;;;;;16.08;12.00;;;;;;;12.88;55.79;100854.34;5017393;28;20287;-75
2023/03/02 04:39:46;;;;;;;20.67;11.37;;;;;;;12.84;55.68;100849.56;5015685;28;20045;-75
2023/03/02 04:42:40;;;;;;;12.20;8.25;;;;;;;12.90;56.00;100849.38;5020078;28;20041;-75
2023/03/02 04:45:35;;;;;;;16.33;11.90;;;;;;;12.86;55.64;100855.47;5000715;28;20045;-75
2023/03/02 04:48:28;;;;;;;7.32;5.60;;;;;;;12.89;56.17;100850.50;5031740;28;20033;-75
2023/03/02 04:51:28;;;;;;;5.65;4.53;;;;;;;12.88;55.72;100854.34;5031386;28;20525;-75
2023/03/02 04:54:23;;;;;;;12.20;7.97;;;;;;;12.76;56.30;100864.03;5016470;28;20045;-76
2023/03/02 04:57:18;;;;;;;5.93;4.70;;;;;;;12.83;56.22;100850.69;5031674;28;20056;-76
2023/03/02 05:00:11;;;;;;;5.90;4.65;;;;;;;12.88;56.29;100846.16;5030331;28;20048;-75
2023/03/02 05:03:06;;;;;;;9.45;5.03;;;;;;;12.92;56.50;100852.56;5021143;28;20052;-75
2023/03/02 05:06:01;;;;;;;5.65;4.28;;;;;;;12.95;56.78;100843.75;5023597;28;20560;-75
2023/03/02 05:08:53;;;;;;;4.40;3.30;;;;;;;12.93;56.70;100844.06;5017112;28;20044;-75
2023/03/02 05:11:47;;;;;;;13.00;9.27;;;;;;;12.95;56.21;100843.75;5018331;28;20044;-75
2023/03/02 05:14:42;;;;;;;10.15;7.45;;;;;;;12.81;56.06;100852.94;5004465;28;20533;-75
2023/03/02 05:17:36;;;;;;;9.65;5.68;;;;;;;12.79;56.39;100849.75;5001844;28;20052;-75
2023/03/02 05:20:31;;;;;;;12.47;8.83;;;;;;;12.69;56.09;100846.56;5015201;28;20049;-75
2023/03/02 05:23:25;;;;;;;6.90;4.97;;;;;;;12.82;56.38;100848.28;5034465;28;20641;-75
2023/03/02 05:26:20;;;;;;;4.97;4.30;;;;;;;12.92;56.80;100855.28;5033838;28;20048;-75
2023/03/02 05:29:12;;;;;;;6.13;4.05;;;;;;;12.98;56.61;100852.06;5028091;28;20061;-75
2023/03/02 05:32:01;;;;;;;6.63;3.88;;;;;;;12.98;56.70;100857.53;5013864;28;20044;-75
2023/03/02 05:34:56;;;;;;;6.40;4.80;;;;;;;12.98;56.58;100849.34;5013316;28;20049;-75
2023/03/02 05:37:50;;;;;;;13.40;7.57;;;;;;;12.94;55.71;100850.31;5015472;28;20049;-75
2023/03/02 05:40:45;;;;;;;12.97;8.40;;;;;;;12.81;55.61;100857.59;5000275;28;20052;-75
2023/03/02 05:43:40;;;;;;;20.85;14.35;;;;;;;12.36;55.46;100854.50;5030645;28;20200;-75
2023/03/02 05:46:34;;;;;;;7.97;5.88;;;;;;;12.93;56.78;100862.38;5030286;28;20037;-75
2023/03/02 05:49:29;;;;;;;20.10;14.00;;;;;;;12.46;54.94;100861.53;5034116;28;20052;-75
2023/03/02 05:52:23;;;;;;;13.93;10.03;;;;;;;12.24;54.93;100876.19;5007503;28;20407;-75
2023/03/02 05:55:21;;;;;;;22.40;15.00;;;;;;;11.86;56.54;100868.63;5014383;28;20037;-75
2023/03/02 05:58:17;;;;;;;20.52;13.80;;;;;;;11.72;56.60;100873.41;5019822;28;20534;-75
2023/03/02 06:01:12;;;;;;;30.25;15.35;;;;;;;11.70;57.13;100883.00;5033313;28;20046;-75
2023/03/02 06:04:07;;;;;;;26.60;14.68;;;;;;;11.65;57.09;100875.78;5019840;28;20037;-74
2023/03/02 06:07:01;;;;;;;23.38;17.08;;;;;;;11.57;57.42;100877.38;5007261;28;20030;-74
2023/03/02 06:09:56;;;;;;;24.40;16.85;;;;;;;11.50;57.86;100878.97;5011188;28;20037;-74
2023/03/02 06:12:50;;;;;;;22.02;14.23;;;;;;;11.51;59.01;100878.66;5024655;28;20037;-74
2023/03/02 06:15:45;;;;;;;34.13;16.57;;;;;;;11.48;59.23;100886.63;5034172;28;20037;-75
2023/03/02 06:18:40;;;;;;;23.33;16.87;;;;;;;11.33;58.76;100881.63;5033785;28;20038;-74
2023/03/02 06:21:35;;;;;;;24.70;16.05;;;;;;;11.23;59.40;100879.19;5033377;28;20038;-75
2023/03/02 06:24:29;;;;;;;28.55;18.13;;;;;;;10.99;60.46;100880.41;5034043;28;20053;-74
2023/03/02 06:27:24;;;;;;;26.20;14.80;;;;;;;11.37;62.91;100882.63;5031400;28;20041;-75
2023/03/02 06:30:20;;;;;;;25.95;13.95;;;;;;;11.53;59.89;100889.22;5032089;28;20045;-75
2023/03/02 06:33:15;;;;;;;26.30;15.50;;;;;;;11.62;60.06;100884.59;5021799;28;20498;-75
2023/03/02 06:36:10;;;;;;;31.13;17.63;;;;;;;11.43;59.78;100887.59;5028962;28;20046;-75
2023/03/02 06:39:04;;;;;;;27.40;18.87;;;;;;;11.33;60.40;100889.78;4998719;28;20437;-75
2023/03/02 06:41:59;;;;;;;29.27;17.23;;;;;;;11.39;60.21;100888.53;5019590;28;20033;-75
2023/03/02 06:44:54;;;;;;;37.43;18.47;;;;;;;11.44;60.29;100883.75;5013874;28;20276;-75
2023/03/02 06:47:48;;;;;;;27.40;17.97;;;;;;;11.37;59.94;100888.88;5032607;28;20275;-75
2023/03/02 06:50:43;;;;;;;22.70;16.07;;;;;;;11.29;61.03;100884.19;5024983;28;20272;-75
2023/03/02 06:53:37;;;;;;;31.33;18.27;;;;;;;11.62;61.55;100900.94;5015874;28;20506;-75
2023/03/02 06:56:32;;;;;;;15.25;8.68;;;;;;;13.13;59.87;100897.16;5014647;28;20068;-75
2023/03/02 06:59:26;;;;;;;14.63;9.60;;;;;;;14.05;56.82;100898.06;5019107;28;20113;-76
2023/03/02 07:02:19;;;;;;;21.40;11.57;;;;;;;14.03;54.86;100892.09;5014491;28;20056;-75
2023/03/02 07:05:13;;;;;;;17.67;9.30;;;;;;;15.22;52.31;100908.47;5031060;28;20030;-75
2023/03/02 07:08:08;;;;;;;24.87;13.97;;;;;;;14.23;53.02;100902.22;5025185;28;20053;-75
2023/03/02 07:11:05;;;;;;;26.70;17.47;;;;;;;13.02;54.12;100910.34;5003026;28;20049;-76
2023/03/02 07:13:57;;;;;;;28.75;14.35;;;;;;;12.81;55.53;100918.41;5025822;28;20295;-75
2023/03/02 07:16:52;;;;;;;31.23;19.30;;;;;;;12.44;55.85;100916.41;5015404;22;20041;-74
2023/03/02 07:19:46;;;;;;;35.83;22.63;;;;;;;12.34;56.65;100912.06;4972060;28;20051;-75
2023/03/02 07:22:41;;;;;;;22.98;17.15;;;;;;;12.08;57.12;100913.22;4971633;28;20042;-75
2023/03/02 07:25:35;;;;;;;31.03;19.30;;;;;;;11.94;57.70;100916.88;4973406;28;20031;-75
2023/03/02 07:28:27;;;;;;;25.15;15.15;;;;;;;11.74;58.31;100913.97;4954217;28;20047;-75
2023/03/02 07:31:22;;;;;;;32.30;18.63;;;;;;;11.71;58.98;100917.31;4948931;28;20515;-75
2023/03/02 07:34:14;;;;;;;26.60;16.50;;;;;;;11.87;58.87;100921.22;4949398;29;20039;-75
2023/03/02 07:37:08;;;;;;;27.42;17.52;;;;;;;11.79;58.78;100925.50;4957619;28;20034;-75
2023/03/02 07:40:03;;;;;;;30.70;18.33;;;;;;;11.65;59.40;100926.75;4955981;28;20043;-75
2023/03/02 07:42:58;;;;;;;27.13;17.43;;;;;;;11.79;59.44;100925.50;4957103;28;20267;-75
2023/03/02 07:45:52;;;;;;;23.83;12.23;;;;;;;11.92;58.83;100924.59;4955202;28;20035;-75
2023/03/02 07:48:47;;;;;;;30.73;19.07;;;;;;;11.80;58.66;100931.78;4952620;28;20039;-75
2023/03/02 07:51:41;;;;;;;25.90;14.13;;;;;;;11.69;59.51;100928.50;4955452;28;20039;-75
2023/03/02 07:54:36;;;;;;;32.13;19.30;;;;;;;11.70;59.43;100929.31;4955732;28;20039;-75
2023/03/02 07:57:31;;;;;;;14.30;9.93;;;;;;;12.07;59.73;100923.31;4965033;28;20516;-75
2023/03/02 08:00:25;;;;;;;21.00;13.30;;;;;;;12.21;58.25;100931.31;4940563;29;20297;-75
2023/03/02 08:03:20;;;;;;;15.37;10.50;;;;;;;12.83;57.56;100932.56;4944700;29;20279;-75
2023/03/02 08:06:14;;;;;;;18.35;9.68;;;;;;;12.86;57.57;100929.16;4950636;28;20040;-76
2023/03/02 08:09:09;;;;;;;16.13;9.35;;;;;;;14.72;52.68;100927.09;4947785;28;20058;-75
2023/03/02 08:12:03;;;;;;;11.65;7.45;;;;;;;15.24;50.82;100930.03;4939474;28;20046;-75
2023/03/02 08:14:58;;;;;;;20.40;8.25;;;;;;;14.66;52.25;100925.69;4951000;28;20050;-75
2023/03/02 08:17:53;;;;;;;41.33;12.30;;;;;;;15.25;50.40;100917.94;4937060;29;21024;-75
2023/03/02 08:20:45;;;;;;;46.13;15.20;;;;;;;15.48;49.46;100912.81;4948121;29;20295;-75
2023/03/02 08:23:39;;;;;;;36.58;15.13;;;;;;;15.53;49.25;100920.84;4956714;28;20044;-76
2023/03/02 08:26:34;;;;;;;52.33;17.23;;;;;;;15.58;49.12;100909.66;4956674;28;20408;-75
2023/03/02 08:29:25;;;;;;;30.90;11.80;;;;;;;15.62;48.84;100916.03;4958242;28;20051;-75
2023/03/02 08:32:20;;;;;;;32.13;14.23;;;;;;;15.67;48.66;100907.56;4955384;28;20047;-75
2023/03/02 08:35:15;;;;;;;47.97;16.80;;;;;;;15.81;48.44;100908.81;4949618;28;20501;-75
2023/03/02 08:38:09;;;;;;;56.87;25.13;;;;;;;15.85;48.08;100900.69;4942582;28;20048;-79
2023/03/02 08:41:06;;;;;;;73.88;15.93;;;;;;;13.92;52.11;100899.09;4949198;29;20647;-75
2023/03/02 08:44:00;;;;;;;23.73;15.32;;;;;;;13.63;53.13;100906.22;4962003;28;20497;-75
2023/03/02 08:46:54;;;;;;;27.65;15.30;;;;;;;13.97;51.73;100898.91;4946764;29;20056;-75
2023/03/02 08:49:49;;;;;;;21.13;15.00;;;;;;;14.42;51.97;100910.00;4942628;28;20040;-76
2023/03/02 08:52:44;;;;;;;25.23;15.98;;;;;;;14.20;51.56;100910.31;4951643;28;20039;-76
2023/03/02 08:55:38;;;;;;;26.05;14.25;;;;;;;13.86;52.46;100911.38;4953207;28;20031;-77
2023/03/02 08:58:33;;;;;;;18.63;12.65;;;;;;;13.84;50.95;100919.09;4938818;29;20048;-76
2023/03/02 09:01:28;;;;;;;19.98;11.68;;;;;;;14.04;51.14;100912.84;4944874;28;20039;-76
2023/03/02 09:04:22;;;;;;;17.90;11.05;;;;;;;14.10;49.87;100915.06;4947974;29;20496;-76
2023/03/02 09:07:16;;;;;;;13.88;9.88;;;;;;;14.54;48.36;100913.56;4954108;29;20039;-76
2023/03/02 09:10:11;;;;;;;19.02;10.55;;;;;;;14.33;47.85;100920.97;4953424;28;20512;-75
2023/03/02 09:13:06;;;;;;;14.30;9.63;;;;;;;14.28;49.48;100920.38;4955414;28;20050;-76
2023/03/02 09:16:00;;;;;;;7.80;4.93;;;;;;;14.12;46.16;100920.97;4953029;28;20042;-77
2023/03/02 09:18:55;;;;;;;5.80;4.47;;;;;;;13.76;45.72;100909.84;4943848;29;20051;-76
2023/03/02 09:21:50;;;;;;;5.10;2.55;;;;;;;13.80;45.77;100912.72;4952182;29;20050;-77
2023/03/02 09:24:44;;;;;;;4.37;2.80;;;;;;;13.11;44.24;100910.28;4956454;28;20054;-76
2023/03/02 09:27:37;;;;;;;4.40;2.95;;;;;;;12.64;45.98;100921.22;4941029;29;20058;-76
2023/03/02 09:30:31;;;;;;;5.38;3.40;;;;;;;12.19;47.17;100920.72;4953013;29;20559;-76
2023/03/02 09:33:27;;;;;;;4.87;3.70;;;;;;;12.85;47.09;100924.03;4960300;28;20054;-76
2023/03/02 09:36:23;;;;;;;6.45;3.72;;;;;;;13.06;45.22;100922.19;4955728;28;20412;-76
2023/03/02 09:39:17;;;;;;;4.75;3.38;;;;;;;13.16;45.79;100918.34;4957635;28;20543;-76
2023/03/02 09:42:18;;;;;;;11.07;3.65;;;;;;;13.22;45.13;100922.50;4947164;29;20062;-76
2023/03/02 09:45:16;;;;;;;12.15;4.45;;;;;;;12.74;46.88;100918.13;4932947;29;20540;-76
2023/03/02 09:48:34;;;;;;;5.22;4.05;;;;;;;13.15;45.60;100922.22;4933050;29;20055;-76
2023/03/02 09:51:55;;;;;;;7.20;4.05;;;;;;;13.16;46.04;100930.06;4937993;29;20047;-76
2023/03/02 09:54:50;;;;;;;6.30;4.50;;;;;;;12.74;47.16;100930.97;4942810;29;20074;-76
2023/03/02 09:57:45;;;;;;;7.32;4.35;;;;;;;12.94;46.26;100940.41;4955374;28;20042;-76
2023/03/02 10:00:39;;;;;;;6.28;3.80;;;;;;;13.48;45.17;100928.66;4963344;28;20054;-76
2023/03/02 10:03:43;;;;;;;6.82;4.32;;;;;;;14.44;42.98;100943.28;4945083;29;20112;-76
2023/03/02 10:06:37;;;;;;;5.82;3.97;;;;;;;14.77;42.48;100944.13;4955466;29;20062;-76
2023/03/02 10:09:32;;;;;;;4.57;3.28;;;;;;;15.19;42.08;100939.28;4955405;29;20435;-76
2023/03/02 10:12:32;;;;;;;4.13;2.63;;;;;;;14.88;41.57;100936.28;4955270;29;20070;-76
2023/03/02 10:15:52;;;;;;;7.30;4.80;;;;;;;14.70;42.73;100934.84;4944073;29;20050;-76
2023/03/02 10:19:12;;;;;;;5.57;4.30;;;;;;;14.66;42.36;100940.19;4971700;28;20530;-76
2023/03/02 10:22:18;;;;;;;7.68;4.25;;;;;;;14.17;42.98;100943.81;4957347;28;20530;-76
2023/03/02 10:25:57;;;;;;;7.13;4.18;;;;;;;13.71;44.96;100946.34;4950223;29;20054;-77
2023/03/02 10:28:56;;;;;;;11.00;4.72;;;;;;;13.92;44.13;100943.66;4953027;28;20058;-76
2023/03/02 10:31:54;;;;;;;10.30;5.55;;;;;;;14.31;44.45;100947.88;4955746;29;20054;-76
2023/03/02 10:34:50;;;;;;;15.35;9.07;;;;;;;14.65;45.75;100943.25;4955455;28;20051;-76
2023/03/02 10:37:44;;;;;;;11.32;8.57;;;;;;;14.31;46.99;100938.88;4958445;28;20038;-76
2023/03/02 10:40:55;;;;;;;15.13;9.07;;;;;;;14.56;46.40;100940.59;4958648;28;20102;-77
2023/03/02 10:43:55;;;;;;;12.05;8.88;;;;;;;14.65;47.02;100948.72;4956588;28;20062;-77
2023/03/02 10:46:50;;;;;;;17.75;10.40;;;;;;;14.36;47.95;100935.94;4955640;28;20051;-76
2023/03/02 10:49:47;;;;;;;15.40;9.55;;;;;;;13.64;49.32;100931.63;4954423;29;20047;-76
2023/03/02 10:52:52;;;;;;;14.77;8.85;;;;;;;13.84;48.50;100930.03;4954508;29;20046;-76
2023/03/02 10:55:48;;;;;;;15.23;9.68;;;;;;;13.89;49.07;100932.59;4954280;29;20063;-76
2023/03/02 10:58:40;;;;;;;12.05;8.40;;;;;;;14.13;49.23;100930.00;4955215;28;20062;-76
2023/03/02 11:01:34;;;;;;;13.30;8.20;;;;;;;13.83;49.33;100921.03;4954359;28;20155;-76
2023/03/02 11:04:29;;;;;;;13.77;8.40;;;;;;;13.78;49.19;100929.44;4961040;28;20050;-76
2023/03/02 11:07:25;;;;;;;12.38;8.43;;;;;;;13.65;47.84;100925.84;4951082;28;20042;-76
2023/03/02 11:10:22;;;;;;;10.55;6.35;;;;;;;13.34;47.90;100928.06;4948626;28;20101;-76
2023/03/02 11:13:31;;;;;;;9.50;5.80;;;;;;;12.98;49.37;100916.78;4935990;29;20043;-76
2023/03/02 11:16:32;;;;;;;8.73;5.57;;;;;;;13.06;50.50;100926.84;4935910;29;20047;-76
2023/03/02 11:19:35;;;;;;;6.50;3.33;;;;;;;12.99;48.63;100921.13;4936905;28;20054;-76
2023/03/02 11:22:44;;;;;;;2.67;1.27;;;;;;;12.05;49.59;100925.53;4953330;28;20049;-77
2023/03/02 11:25:41;;;;;;;7.63;1.60;;;;;;;11.49;51.65;100918.19;4946107;29;20050;-76
2023/03/02 11:28:51;;;;;;;4.30;1.65;;;;;;;11.29;52.26;100913.34;4956941;28;20116;-76
2023/03/02 11:31:56;;;;;;;3.15;1.48;;;;;;;11.12;53.33;100908.66;4941408;29;20059;-76
2023/03/02 11:35:02;;;;;;;2.83;0.98;;;;;;;11.20;52.29;100909.78;4956622;28;20051;-76
2023/03/02 11:38:00;;;;;;;4.43;1.23;;;;;;;11.28;52.92;100909.81;4945303;28;20050;-75
2023/03/02 11:41:14;;;;;;;2.42;1.83;;;;;;;11.53;52.49;100913.72;4935705;28;20051;-75
2023/03/02 11:44:17;;;;;;;5.20;1.50;;;;;;;11.85;50.92;100913.34;4953154;29;20050;-76
2023/03/02 11:47:15;;;;;;;2.58;1.27;;;;;;;11.88;51.05;100907.28;4953168;28;20042;-75
2023/03/02 11:50:12;;;;;;;5.75;1.13;;;;;;;11.85;50.81;100907.91;4961308;28;20539;-75
2023/03/02 11:53:12;;;;;;;4.03;1.65;;;;;;;11.85;50.14;100907.91;4941438;28;20059;-75
2023/03/02 11:56:06;;;;;;;8.50;0.80;;;;;;;12.09;49.74;100898.47;4945294;29;20054;-75
2023/03/02 11:59:04;;;;;;;1.67;1.17;;;;;;;12.20;50.04;100905.19;4961744;28;20062;-76
2023/03/02 12:02:00;;;;;;;2.90;0.98;;;;;;;12.16;49.14;100896.06;4954096;28;20042;-75
2023/03/02 12:05:03;;;;;;;1.27;0.95;;;;;;;12.11;47.66;100891.56;4949407;28;20408;-75
2023/03/02 12:08:04;;;;;;;1.83;0.63;;;;;;;12.19;49.12;100898.16;4940403;28;20058;-75
2023/03/02 12:11:00;;;;;;;1.85;0.98;;;;;;;12.15;48.64;100889.00;4945060;29;20042;-76
2023/03/02 12:14:07;;;;;;;1.50;0.68;;;;;;;12.08;48.58;100888.69;4945562;29;20058;-75
2023/03/02 12:17:29;;;;;;;1.77;0.80;;;;;;;12.12;48.56;100892.38;4947608;28;20500;-76
2023/03/02 12:20:26;;;;;;;3.08;0.90;;;;;;;12.07;48.30;100887.06;4932345;29;20168;-76
2023/03/02 12:23:30;;;;;;;5.10;0.93;;;;;;;11.84;48.64;100884.50;4955363;28;20065;-75
2023/03/02 12:26:31;;;;;;;0.73;0.50;;;;;;;12.11;48.13;100879.84;4951444;28;20047;-76
2023/03/02 12:29:21;;;;;;;4.22;1.63;;;;;;;12.15;48.08;100875.34;4962165;28;20049;-76
2023/03/02 12:32:26;;;;;;;3.00;0.90;;;;;;;12.19;47.32;100874.38;4947432;29;20050;-76
2023/03/02 12:35:21;;;;;;;1.77;0.90;;;;;;;12.52;47.43;100874.69;4954072;29;20050;-76
2023/03/02 12:38:38;;;;;;;0.93;0.80;;;;;;;12.52;46.91;100868.41;4955123;28;20046;-76
2023/03/02 12:41:53;;;;;;;2.03;0.90;;;;;;;12.30;47.04;100872.94;4954883;28;20098;-75
2023/03/02 12:44:57;;;;;;;2.97;0.85;;;;;;;12.38;47.86;100865.88;4971989;28;20054;-76
2023/03/02 12:47:53;;;;;;;2.45;1.27;;;;;;;11.75;49.14;100870.06;4957626;28;20046;-75
2023/03/02 12:50:45;;;;;;;;;;;;;;;11.83;49.23;100874.75;4965753;28;20054;-75
2023/03/02 12:53:39;;;;;;;3.88;0.75;;;;;;;11.93;49.50;100874.41;4956010;29;19914;-75
2023/03/02 12:56:34;;;;;;;1.13;0.68;;;;;;;11.84;49.33;100859.16;4952637;29;20038;-76
2023/03/02 12:59:31;;;;;;;2.95;1.33;;;;;;;11.98;49.82;100863.38;4957275;28;20432;-76
2023/03/02 13:02:28;;;;;;;2.03;1.23;;;;;;;12.14;50.03;100857.41;4952998;28;20058;-75
2023/03/02 13:05:29;;;;;;;2.53;1.67;;;;;;;12.21;50.07;100857.72;4956082;28;20070;-76
2023/03/02 13:08:27;;;;;;;6.05;1.35;;;;;;;11.92;49.62;100867.34;4934496;29;20043;-76
2023/03/02 13:11:29;;;;;;;3.22;1.60;;;;;;;12.02;50.73;100862.72;4933559;29;20043;-76
2023/03/02 13:14:30;;;;;;;4.30;1.55;;;;;;;12.25;52.12;100853.22;4960502;28;20436;-76
2023/03/02 13:17:29;;;;;;;4.90;2.05;;;;;;;12.26;51.24;100857.56;4947610;29;20055;-76
2023/03/02 13:20:26;;;;;;;3.20;1.30;;;;;;;11.97;51.35;100852.78;4950284;28;20075;-76
2023/03/02 13:23:21;;;;;;;3.53;1.85;;;;;;;12.21;50.95;100846.81;4948607;29;20050;-76
2023/03/02 13:26:32;;;;;;;3.00;2.08;;;;;;;12.53;50.22;100848.22;4949337;28;20050;-76
2023/03/02 13:29:29;;;;;;;2.72;1.98;;;;;;;12.69;50.96;100846.56;4980403;28;20050;-75
2023/03/02 13:32:42;;;;;;;3.90;1.92;;;;;;;12.99;50.31;100840.03;4956732;29;20050;-76
2023/03/02 13:35:36;;;;;;;5.15;1.85;;;;;;;13.23;48.74;100845.72;4958202;28;20046;-76